x

Buoy M01 - Jordan Basin (44037) Wave Buoy

2:04pm - Wed 24th Aug 2016 All times are EDT. -4 hours from GMT.

  • Sig Wave height 1.6ft
  • Peak Period 5s
  • Wind
    9mph, 11mph gusts
  • Sea Temp 66°f
  • Air Temp 66°f
  • Sea Pressure 1022.3mb
  • Buoy M01 - Jordan Basin
  • Buoy M01 - Jordan Basin

More Historic Weather Station data

Upgrade to MSW Pro to gain access to the past 30 days of data for over 8000 Wavebouys and Weather Stations around the globe.

Join Pro

Comparision Forecast

View Surf forecast
   
Wed 08/24 2:04pm 1.6ft 5s 9 11 mph 1022.3mb 66f 66f
1:04pm 1.6ft 5s 7
mph
1022.8mb 66f 66f
12:04pm 2ft 6s 9
mph
1023mb 65f 66f
11:04am 2ft 5s 9
mph
1023.1mb 65f 66f
9:04am 2.5ft 5s 11
mph
1023.2mb 64f 66f
8:04am 2ft 5s 9 11 mph 1023.2mb 64f 67f
7:04am 2ft 5s 9 11 mph 1022.6mb 64f 66f
6:04am  -   -  7 9 mph 1022.4mb - 65f
5:04am  -   -  7
mph
1022.2mb - 65f
4:04am 2.5ft 8s 9 11 mph 1022mb 64f 65f
3:04am 2ft 8s 9 11 mph 1022.1mb 64f 65f
2:04am  -   -  11 13 mph 1022.4mb - 65f
1:04am 2ft 4s 11 13 mph 1022.9mb 64f 65f
12:04am 1.6ft 4s 11
mph
1023.1mb 64f 65f
Tue 08/23 11:04pm 2.5ft 4s 11 13 mph 1023.1mb 64f 65f
10:04pm 2.5ft 4s 13
mph
1023.1mb 64f 65f
9:04pm  -   -  13 16 mph 1022.7mb - 65f
8:04pm  -   -  13 16 mph 1022.3mb 64f 65f
7:04pm 1.6ft 3s 11 13 mph 1022.3mb 64f 65f
6:04pm 2.5ft 8s 13 18 mph 1022.1mb 64f 65f
5:04pm 2ft 4s 13 16 mph 1022.1mb 64f 65f
4:04pm 2.5ft 4s 13 18 mph 1022.3mb 64f 65f
2:04pm 2.5ft 5s 13 18 mph 1022.7mb 64f 64f
1:04pm  -   -  16 18 mph 1022.9mb - 64f
12:04pm 2.5ft 5s 16 20 mph 1022.9mb 64f 64f
10:04am 3.5ft 5s 16 18 mph 1022.7mb 64f 63f
9:04am 3.5ft 5s 18 20 mph 1022.4mb 64f 63f
8:04am 3.5ft 5s 18 20 mph 1021.8mb 64f 64f
6:04am 3.5ft 5s  -  mph - 64f -
4:04am 4.5ft 5s 20 22 mph 1019.4mb 64f 63f
3:04am 5ft 5s 20 27 mph 1018.8mb 64f 63f
1:04am 4.5ft 5s 22 27 mph 1017.6mb 64f 64f
12:04am 4.5ft 5s 20 25 mph 1017.1mb 64f 64f
Mon 08/22 11:04pm 3.5ft 5s 20 25 mph 1016.4mb 64f 64f
10:04pm 4ft 5s 18 25 mph 1016mb 64f 64f
8:04pm 4.5ft 5s 22 27 mph 1014.1mb 65f 64f
7:04pm 3.5ft 4s 27 34 mph 1012.4mb 66f 66f
6:04pm  -   -  18 20 mph 1011mb - 66f
5:04pm 3ft 3s 18 20 mph 1009.9mb 65f 67f
4:04pm 3.5ft 5s 18 20 mph 1009.1mb 64f 67f
3:04pm 3.5ft 8s 13 18 mph 1008.6mb 64f 66f
2:04pm 3ft 8s 13 16 mph 1008.1mb 64f 66f
1:04pm 2.5ft 5s  -  mph - 64f -
12:04pm 3.5ft 5s 11 13 mph 1007.4mb 64f 66f
9:04am  -   -  16 18 mph 1007.2mb - 67f
8:04am  -   -  16 18 mph 1007.7mb - 67f
6:04am 3.5ft 4s 13 16 mph 1008.3mb 66f 68f
5:04am 2.5ft 4s 13 16 mph 1008.5mb 66f 68f
4:04am 2ft 4s 16 18 mph 1008.7mb 66f 68f
3:04am 2ft 3s  -  mph - 66f -
2:04am 2.5ft 8s  -  mph - 66f -
1:04am 1.6ft 4s  -  mph - 66f -
Sun 08/21 11:04pm 1.6ft 3s 11 13 mph 1012.2mb 65f 67f
10:04pm 1.3ft 4s 11 13 mph 1012.9mb 65f 67f
9:04pm  -   -  9
mph
1013.4mb - 66f
8:04pm 1.3ft 4s 9
mph
1013.7mb 65f 66f
7:04pm 1.3ft 4s 9
mph
1013.5mb 66f 66f
6:04pm 1.6ft 8s 9 11 mph 1013.6mb 66f 64f
5:04pm 2ft 8s 9 11 mph 1013.8mb 66f 64f
4:04pm 2ft 4s 11 13 mph 1014.2mb 67f 65f
3:04pm 1.6ft 3s 11 13 mph 1014.4mb 67f 65f
2:04pm 2ft 3s 11 13 mph 1015.5mb 66f 65f
12:04pm 1.6ft 3s 13 16 mph 1016.1mb 67f 64f
11:04am 1.6ft 6s 13 16 mph 1016.5mb 66f 63f
10:04am 1.6ft 3s 11 13 mph 1016.9mb 66f 63f
9:04am 2ft 6s 11 13 mph 1017.3mb 66f 62f
8:04am  -   -  7 9 mph 1017.5mb - 62f
6:04am 1.6ft 8s 9 11 mph 1017mb 66f 62f
5:04am 1.6ft 4s 11 16 mph 1016.7mb 66f 62f
4:04am 1.3ft 3s 13 16 mph 1016.4mb 66f 62f
3:04am 1.3ft 3s 13 16 mph 1016.5mb 66f 64f
2:04am 1.3ft 3s 11 13 mph 1016.7mb 66f 65f
1:04am 2ft 3s 11 13 mph 1016.9mb 67f 64f
12:04am 1.3ft 3s 13 16 mph 1016.9mb 67f 65f
Sat 08/20 11:04pm 1.6ft 5s 11 13 mph 1017.4mb 67f 66f
10:04pm 1.3ft 5s 11 13 mph 1017.4mb 67f 66f
9:04pm 1ft 5s 11 13 mph 1017.6mb 68f 65f
8:04pm 1.3ft 8s 9 11 mph 1017.3mb 67f 66f